sensor_id;sensor_type;location;lat;lon;timestamp;P1;durP1;ratioP1;P2;durP2;ratioP2
77513;SDS011;66626;48.872;9.084;2023-08-24T00:01:30;10.27;;;5.55;;
77513;SDS011;66626;48.872;9.084;2023-08-24T00:03:55;8.82;;;4.93;;
77513;SDS011;66626;48.872;9.084;2023-08-24T00:06:21;10.50;;;6.45;;
77513;SDS011;66626;48.872;9.084;2023-08-24T00:08:46;11.25;;;6.28;;
77513;SDS011;66626;48.872;9.084;2023-08-24T00:11:12;9.38;;;6.35;;
77513;SDS011;66626;48.872;9.084;2023-08-24T00:13:43;7.75;;;5.45;;
77513;SDS011;66626;48.872;9.084;2023-08-24T00:16:13;11.60;;;6.88;;
77513;SDS011;66626;48.872;9.084;2023-08-24T00:18:40;8.57;;;5.28;;
77513;SDS011;66626;48.872;9.084;2023-08-24T00:21:05;8.77;;;5.07;;
77513;SDS011;66626;48.872;9.084;2023-08-24T00:23:32;11.07;;;6.20;;
77513;SDS011;66626;48.872;9.084;2023-08-24T00:25:58;10.35;;;6.45;;
77513;SDS011;66626;48.872;9.084;2023-08-24T00:28:23;9.00;;;6.30;;
77513;SDS011;66626;48.872;9.084;2023-08-24T00:30:49;8.65;;;6.00;;
77513;SDS011;66626;48.872;9.084;2023-08-24T00:33:14;12.65;;;6.55;;
77513;SDS011;66626;48.872;9.084;2023-08-24T00:35:39;8.43;;;5.72;;
77513;SDS011;66626;48.872;9.084;2023-08-24T00:38:05;9.77;;;5.43;;
77513;SDS011;66626;48.872;9.084;2023-08-24T00:40:30;10.77;;;5.30;;
77513;SDS011;66626;48.872;9.084;2023-08-24T00:42:55;11.80;;;6.15;;
77513;SDS011;66626;48.872;9.084;2023-08-24T00:45:21;9.48;;;6.30;;
77513;SDS011;66626;48.872;9.084;2023-08-24T00:47:47;10.98;;;6.80;;
77513;SDS011;66626;48.872;9.084;2023-08-24T00:50:12;12.75;;;6.70;;
77513;SDS011;66626;48.872;9.084;2023-08-24T00:52:38;10.75;;;6.55;;
77513;SDS011;66626;48.872;9.084;2023-08-24T00:55:06;10.70;;;5.93;;
77513;SDS011;66626;48.872;9.084;2023-08-24T00:57:32;10.98;;;6.82;;
77513;SDS011;66626;48.872;9.084;2023-08-24T00:59:59;9.40;;;5.88;;
77513;SDS011;66626;48.872;9.084;2023-08-24T01:02:25;9.73;;;6.95;;
77513;SDS011;66626;48.872;9.084;2023-08-24T01:04:50;9.65;;;6.25;;
77513;SDS011;66626;48.872;9.084;2023-08-24T01:07:16;9.88;;;5.90;;
77513;SDS011;66626;48.872;9.084;2023-08-24T01:09:42;10.65;;;5.70;;
77513;SDS011;66626;48.872;9.084;2023-08-24T01:14:38;10.55;;;5.60;;
77513;SDS011;66626;48.872;9.084;2023-08-24T01:17:09;9.98;;;6.35;;
77513;SDS011;66626;48.872;9.084;2023-08-24T01:19:41;11.00;;;6.70;;
77513;SDS011;66626;48.872;9.084;2023-08-24T01:22:14;16.15;;;7.07;;
77513;SDS011;66626;48.872;9.084;2023-08-24T01:24:53;10.10;;;6.28;;
77513;SDS011;66626;48.872;9.084;2023-08-24T01:27:33;11.82;;;6.88;;
77513;SDS011;66626;48.872;9.084;2023-08-24T01:29:59;9.98;;;6.43;;
77513;SDS011;66626;48.872;9.084;2023-08-24T01:32:25;8.85;;;5.78;;
77513;SDS011;66626;48.872;9.084;2023-08-24T01:34:50;11.25;;;7.80;;
77513;SDS011;66626;48.872;9.084;2023-08-24T01:37:16;10.27;;;6.70;;
77513;SDS011;66626;48.872;9.084;2023-08-24T01:39:54;10.45;;;6.43;;
77513;SDS011;66626;48.872;9.084;2023-08-24T01:42:26;8.60;;;6.32;;
77513;SDS011;66626;48.872;9.084;2023-08-24T01:44:55;8.85;;;5.57;;
77513;SDS011;66626;48.872;9.084;2023-08-24T01:47:23;8.82;;;5.43;;
77513;SDS011;66626;48.872;9.084;2023-08-24T01:49:49;8.38;;;5.13;;
77513;SDS011;66626;48.872;9.084;2023-08-24T01:52:15;8.63;;;5.47;;
77513;SDS011;66626;48.872;9.084;2023-08-24T01:54:41;7.88;;;5.25;;
77513;SDS011;66626;48.872;9.084;2023-08-24T01:57:06;9.23;;;6.30;;
77513;SDS011;66626;48.872;9.084;2023-08-24T01:59:31;8.80;;;6.35;;
77513;SDS011;66626;48.872;9.084;2023-08-24T02:01:57;10.05;;;5.30;;
77513;SDS011;66626;48.872;9.084;2023-08-24T02:04:22;11.20;;;6.13;;
77513;SDS011;66626;48.872;9.084;2023-08-24T02:06:48;8.70;;;5.75;;
77513;SDS011;66626;48.872;9.084;2023-08-24T02:09:13;9.43;;;5.88;;
77513;SDS011;66626;48.872;9.084;2023-08-24T02:11:38;9.65;;;5.90;;
77513;SDS011;66626;48.872;9.084;2023-08-24T02:14:04;9.48;;;6.25;;
77513;SDS011;66626;48.872;9.084;2023-08-24T02:16:29;9.98;;;6.30;;
77513;SDS011;66626;48.872;9.084;2023-08-24T02:18:55;11.00;;;6.55;;
77513;SDS011;66626;48.872;9.084;2023-08-24T02:21:20;9.07;;;6.10;;
77513;SDS011;66626;48.872;9.084;2023-08-24T02:23:46;9.52;;;5.75;;
77513;SDS011;66626;48.872;9.084;2023-08-24T02:26:12;11.32;;;6.57;;
77513;SDS011;66626;48.872;9.084;2023-08-24T02:28:37;10.95;;;6.32;;
77513;SDS011;66626;48.872;9.084;2023-08-24T02:31:03;9.48;;;5.90;;
77513;SDS011;66626;48.872;9.084;2023-08-24T02:33:29;10.52;;;6.68;;
77513;SDS011;66626;48.872;9.084;2023-08-24T02:35:55;17.60;;;7.10;;
77513;SDS011;66626;48.872;9.084;2023-08-24T02:38:21;10.40;;;6.30;;
77513;SDS011;66626;48.872;9.084;2023-08-24T02:40:46;10.02;;;6.60;;
77513;SDS011;66626;48.872;9.084;2023-08-24T02:43:11;11.60;;;6.93;;
77513;SDS011;66626;48.872;9.084;2023-08-24T02:45:37;10.93;;;6.40;;
77513;SDS011;66626;48.872;9.084;2023-08-24T02:48:02;13.15;;;7.35;;
77513;SDS011;66626;48.872;9.084;2023-08-24T02:50:28;9.45;;;6.43;;
77513;SDS011;66626;48.872;9.084;2023-08-24T02:52:54;9.70;;;6.30;;
77513;SDS011;66626;48.872;9.084;2023-08-24T02:55:19;9.73;;;6.70;;
77513;SDS011;66626;48.872;9.084;2023-08-24T02:57:44;11.00;;;6.47;;
77513;SDS011;66626;48.872;9.084;2023-08-24T03:00:10;11.25;;;7.32;;
77513;SDS011;66626;48.872;9.084;2023-08-24T03:02:38;11.75;;;7.15;;
77513;SDS011;66626;48.872;9.084;2023-08-24T03:05:03;14.60;;;7.90;;
77513;SDS011;66626;48.872;9.084;2023-08-24T03:07:29;10.95;;;6.78;;
77513;SDS011;66626;48.872;9.084;2023-08-24T03:09:56;10.98;;;7.97;;
77513;SDS011;66626;48.872;9.084;2023-08-24T03:12:21;13.20;;;8.13;;
77513;SDS011;66626;48.872;9.084;2023-08-24T03:14:46;10.98;;;6.45;;
77513;SDS011;66626;48.872;9.084;2023-08-24T03:17:12;10.52;;;6.30;;
77513;SDS011;66626;48.872;9.084;2023-08-24T03:19:37;10.30;;;6.50;;
77513;SDS011;66626;48.872;9.084;2023-08-24T03:22:02;11.32;;;6.82;;
77513;SDS011;66626;48.872;9.084;2023-08-24T03:24:28;10.75;;;6.60;;
77513;SDS011;66626;48.872;9.084;2023-08-24T03:26:53;8.10;;;6.07;;
77513;SDS011;66626;48.872;9.084;2023-08-24T03:29:18;10.95;;;7.20;;
77513;SDS011;66626;48.872;9.084;2023-08-24T03:31:45;17.63;;;7.68;;
77513;SDS011;66626;48.872;9.084;2023-08-24T03:34:10;9.98;;;7.00;;
77513;SDS011;66626;48.872;9.084;2023-08-24T03:36:35;12.40;;;7.35;;
77513;SDS011;66626;48.872;9.084;2023-08-24T03:39:03;11.90;;;7.18;;
77513;SDS011;66626;48.872;9.084;2023-08-24T03:41:29;12.60;;;7.63;;
77513;SDS011;66626;48.872;9.084;2023-08-24T03:43:55;13.32;;;8.20;;
77513;SDS011;66626;48.872;9.084;2023-08-24T03:46:22;10.65;;;8.20;;
77513;SDS011;66626;48.872;9.084;2023-08-24T03:48:47;13.63;;;8.60;;
77513;SDS011;66626;48.872;9.084;2023-08-24T03:51:12;13.90;;;9.38;;
77513;SDS011;66626;48.872;9.084;2023-08-24T03:53:38;13.15;;;9.75;;
77513;SDS011;66626;48.872;9.084;2023-08-24T03:56:03;15.15;;;8.93;;
77513;SDS011;66626;48.872;9.084;2023-08-24T03:58:28;14.55;;;9.07;;
77513;SDS011;66626;48.872;9.084;2023-08-24T04:00:54;12.43;;;8.98;;
77513;SDS011;66626;48.872;9.084;2023-08-24T04:03:20;13.38;;;9.05;;
77513;SDS011;66626;48.872;9.084;2023-08-24T04:05:45;16.30;;;8.75;;
77513;SDS011;66626;48.872;9.084;2023-08-24T04:08:11;9.98;;;7.70;;
77513;SDS011;66626;48.872;9.084;2023-08-24T04:10:37;11.80;;;8.00;;
77513;SDS011;66626;48.872;9.084;2023-08-24T04:13:02;12.68;;;7.70;;
77513;SDS011;66626;48.872;9.084;2023-08-24T04:15:28;11.95;;;7.60;;
77513;SDS011;66626;48.872;9.084;2023-08-24T04:17:53;10.85;;;7.57;;
77513;SDS011;66626;48.872;9.084;2023-08-24T04:20:18;11.82;;;8.82;;
77513;SDS011;66626;48.872;9.084;2023-08-24T04:22:44;11.75;;;8.00;;
77513;SDS011;66626;48.872;9.084;2023-08-24T04:25:09;13.18;;;8.73;;
77513;SDS011;66626;48.872;9.084;2023-08-24T04:27:35;12.52;;;7.50;;
77513;SDS011;66626;48.872;9.084;2023-08-24T04:30:01;10.20;;;6.97;;
77513;SDS011;66626;48.872;9.084;2023-08-24T04:32:27;11.70;;;7.57;;
77513;SDS011;66626;48.872;9.084;2023-08-24T04:34:52;11.02;;;7.22;;
77513;SDS011;66626;48.872;9.084;2023-08-24T04:37:17;10.82;;;7.53;;
77513;SDS011;66626;48.872;9.084;2023-08-24T04:39:43;10.57;;;6.40;;
77513;SDS011;66626;48.872;9.084;2023-08-24T04:42:08;10.13;;;7.28;;
77513;SDS011;66626;48.872;9.084;2023-08-24T04:44:34;9.00;;;6.28;;
77513;SDS011;66626;48.872;9.084;2023-08-24T04:46:59;14.32;;;6.47;;
77513;SDS011;66626;48.872;9.084;2023-08-24T04:49:24;13.98;;;7.20;;
77513;SDS011;66626;48.872;9.084;2023-08-24T04:51:50;10.18;;;6.15;;
77513;SDS011;66626;48.872;9.084;2023-08-24T04:54:15;9.75;;;6.35;;
77513;SDS011;66626;48.872;9.084;2023-08-24T04:56:40;9.50;;;6.65;;
77513;SDS011;66626;48.872;9.084;2023-08-24T04:59:06;10.15;;;6.10;;
77513;SDS011;66626;48.872;9.084;2023-08-24T05:01:32;8.45;;;6.03;;
77513;SDS011;66626;48.872;9.084;2023-08-24T05:03:58;15.15;;;7.03;;
77513;SDS011;66626;48.872;9.084;2023-08-24T05:06:23;13.27;;;8.25;;
77513;SDS011;66626;48.872;9.084;2023-08-24T05:08:49;12.65;;;8.50;;
77513;SDS011;66626;48.872;9.084;2023-08-24T05:11:17;10.32;;;7.43;;
77513;SDS011;66626;48.872;9.084;2023-08-24T05:13:43;13.18;;;8.13;;
77513;SDS011;66626;48.872;9.084;2023-08-24T05:16:09;13.02;;;8.57;;
77513;SDS011;66626;48.872;9.084;2023-08-24T05:18:34;13.95;;;8.45;;
77513;SDS011;66626;48.872;9.084;2023-08-24T05:21:01;11.07;;;7.47;;
77513;SDS011;66626;48.872;9.084;2023-08-24T05:23:26;12.80;;;8.85;;
77513;SDS011;66626;48.872;9.084;2023-08-24T05:25:52;11.73;;;7.75;;
77513;SDS011;66626;48.872;9.084;2023-08-24T05:28:17;12.00;;;7.03;;
77513;SDS011;66626;48.872;9.084;2023-08-24T05:30:43;9.80;;;6.40;;
77513;SDS011;66626;48.872;9.084;2023-08-24T05:33:09;10.23;;;6.97;;
77513;SDS011;66626;48.872;9.084;2023-08-24T05:35:34;13.07;;;7.43;;
77513;SDS011;66626;48.872;9.084;2023-08-24T05:37:59;9.50;;;6.47;;
77513;SDS011;66626;48.872;9.084;2023-08-24T05:40:25;14.82;;;6.93;;
77513;SDS011;66626;48.872;9.084;2023-08-24T05:42:50;9.98;;;7.63;;
77513;SDS011;66626;48.872;9.084;2023-08-24T05:45:15;13.45;;;8.30;;
77513;SDS011;66626;48.872;9.084;2023-08-24T05:47:40;12.15;;;7.40;;
77513;SDS011;66626;48.872;9.084;2023-08-24T05:50:06;12.18;;;7.30;;
77513;SDS011;66626;48.872;9.084;2023-08-24T05:52:31;14.15;;;7.97;;
77513;SDS011;66626;48.872;9.084;2023-08-24T05:54:57;16.65;;;11.38;;
77513;SDS011;66626;48.872;9.084;2023-08-24T05:57:22;28.60;;;16.88;;
77513;SDS011;66626;48.872;9.084;2023-08-24T05:59:47;12.98;;;8.40;;
77513;SDS011;66626;48.872;9.084;2023-08-24T06:02:13;11.75;;;8.02;;
77513;SDS011;66626;48.872;9.084;2023-08-24T06:04:38;10.38;;;7.82;;
77513;SDS011;66626;48.872;9.084;2023-08-24T06:07:03;9.93;;;7.25;;
77513;SDS011;66626;48.872;9.084;2023-08-24T06:09:29;9.80;;;7.18;;
77513;SDS011;66626;48.872;9.084;2023-08-24T06:11:55;11.18;;;7.32;;
77513;SDS011;66626;48.872;9.084;2023-08-24T06:14:20;12.95;;;7.22;;
77513;SDS011;66626;48.872;9.084;2023-08-24T06:16:46;10.63;;;7.13;;
77513;SDS011;66626;48.872;9.084;2023-08-24T06:19:11;11.30;;;6.88;;
77513;SDS011;66626;48.872;9.084;2023-08-24T06:21:36;16.13;;;9.95;;
77513;SDS011;66626;48.872;9.084;2023-08-24T06:24:01;15.77;;;10.43;;
77513;SDS011;66626;48.872;9.084;2023-08-24T06:26:28;14.35;;;10.13;;
77513;SDS011;66626;48.872;9.084;2023-08-24T06:28:54;11.77;;;7.55;;
77513;SDS011;66626;48.872;9.084;2023-08-24T06:31:20;12.45;;;7.90;;
77513;SDS011;66626;48.872;9.084;2023-08-24T06:33:46;12.80;;;7.65;;
77513;SDS011;66626;48.872;9.084;2023-08-24T06:36:11;11.75;;;7.97;;
77513;SDS011;66626;48.872;9.084;2023-08-24T06:38:37;13.98;;;7.72;;
77513;SDS011;66626;48.872;9.084;2023-08-24T06:41:02;11.00;;;7.43;;
77513;SDS011;66626;48.872;9.084;2023-08-24T06:43:28;13.75;;;7.88;;
77513;SDS011;66626;48.872;9.084;2023-08-24T06:45:56;16.25;;;7.93;;
77513;SDS011;66626;48.872;9.084;2023-08-24T06:48:21;18.35;;;7.90;;
77513;SDS011;66626;48.872;9.084;2023-08-24T06:50:47;13.25;;;7.13;;
77513;SDS011;66626;48.872;9.084;2023-08-24T06:53:12;10.95;;;7.50;;
77513;SDS011;66626;48.872;9.084;2023-08-24T06:55:39;16.33;;;8.52;;
77513;SDS011;66626;48.872;9.084;2023-08-24T06:58:05;9.93;;;7.20;;
77513;SDS011;66626;48.872;9.084;2023-08-24T07:00:30;12.20;;;6.95;;
77513;SDS011;66626;48.872;9.084;2023-08-24T07:02:56;12.68;;;7.43;;
77513;SDS011;66626;48.872;9.084;2023-08-24T07:05:22;13.32;;;6.90;;
77513;SDS011;66626;48.872;9.084;2023-08-24T07:07:49;21.83;;;13.35;;
77513;SDS011;66626;48.872;9.084;2023-08-24T07:10:15;13.15;;;8.45;;
77513;SDS011;66626;48.872;9.084;2023-08-24T07:12:40;40.20;;;19.35;;
77513;SDS011;66626;48.872;9.084;2023-08-24T07:15:06;13.68;;;8.15;;
77513;SDS011;66626;48.872;9.084;2023-08-24T07:17:32;14.85;;;8.05;;
77513;SDS011;66626;48.872;9.084;2023-08-24T07:19:57;18.48;;;7.88;;
77513;SDS011;66626;48.872;9.084;2023-08-24T07:22:22;15.18;;;7.55;;
77513;SDS011;66626;48.872;9.084;2023-08-24T07:24:48;13.75;;;7.20;;
77513;SDS011;66626;48.872;9.084;2023-08-24T07:27:17;11.90;;;7.18;;
77513;SDS011;66626;48.872;9.084;2023-08-24T07:29:42;19.23;;;9.40;;
77513;SDS011;66626;48.872;9.084;2023-08-24T07:32:08;15.30;;;7.60;;
77513;SDS011;66626;48.872;9.084;2023-08-24T07:34:33;11.13;;;6.68;;
77513;SDS011;66626;48.872;9.084;2023-08-24T07:36:59;11.38;;;6.68;;
77513;SDS011;66626;48.872;9.084;2023-08-24T07:39:24;9.75;;;5.65;;
77513;SDS011;66626;48.872;9.084;2023-08-24T07:41:49;7.82;;;5.90;;
77513;SDS011;66626;48.872;9.084;2023-08-24T07:44:15;10.13;;;6.22;;
77513;SDS011;66626;48.872;9.084;2023-08-24T07:46:40;9.20;;;5.55;;
77513;SDS011;66626;48.872;9.084;2023-08-24T07:49:06;11.57;;;5.93;;
77513;SDS011;66626;48.872;9.084;2023-08-24T07:51:32;9.25;;;6.40;;
77513;SDS011;66626;48.872;9.084;2023-08-24T07:53:58;9.48;;;6.65;;
77513;SDS011;66626;48.872;9.084;2023-08-24T07:56:23;8.98;;;6.13;;
77513;SDS011;66626;48.872;9.084;2023-08-24T07:58:49;10.52;;;5.53;;
77513;SDS011;66626;48.872;9.084;2023-08-24T08:01:14;12.85;;;6.10;;
77513;SDS011;66626;48.872;9.084;2023-08-24T08:03:39;10.43;;;5.40;;
77513;SDS011;66626;48.872;9.084;2023-08-24T08:06:04;10.52;;;5.80;;
77513;SDS011;66626;48.872;9.084;2023-08-24T08:08:30;9.80;;;5.22;;
77513;SDS011;66626;48.872;9.084;2023-08-24T08:11:01;9.40;;;5.35;;
77513;SDS011;66626;48.872;9.084;2023-08-24T08:13:28;13.45;;;5.78;;
77513;SDS011;66626;48.872;9.084;2023-08-24T08:15:54;11.18;;;5.57;;
77513;SDS011;66626;48.872;9.084;2023-08-24T08:18:25;12.25;;;7.03;;
77513;SDS011;66626;48.872;9.084;2023-08-24T08:20:51;10.45;;;6.68;;
77513;SDS011;66626;48.872;9.084;2023-08-24T08:23:17;13.13;;;5.75;;
77513;SDS011;66626;48.872;9.084;2023-08-24T08:25:43;9.68;;;5.38;;
77513;SDS011;66626;48.872;9.084;2023-08-24T08:28:08;14.00;;;6.25;;
77513;SDS011;66626;48.872;9.084;2023-08-24T08:30:33;9.52;;;5.97;;
77513;SDS011;66626;48.872;9.084;2023-08-24T08:32:59;9.90;;;5.35;;
77513;SDS011;66626;48.872;9.084;2023-08-24T08:35:24;7.68;;;5.10;;
77513;SDS011;66626;48.872;9.084;2023-08-24T08:37:50;8.07;;;4.63;;
77513;SDS011;66626;48.872;9.084;2023-08-24T08:40:17;7.50;;;5.32;;
77513;SDS011;66626;48.872;9.084;2023-08-24T08:42:42;8.88;;;4.70;;
77513;SDS011;66626;48.872;9.084;2023-08-24T08:45:08;8.93;;;4.47;;
77513;SDS011;66626;48.872;9.084;2023-08-24T08:47:35;9.60;;;4.60;;
77513;SDS011;66626;48.872;9.084;2023-08-24T08:50:01;7.57;;;4.47;;
77513;SDS011;66626;48.872;9.084;2023-08-24T08:52:28;7.30;;;4.32;;
77513;SDS011;66626;48.872;9.084;2023-08-24T08:54:53;9.32;;;4.90;;
77513;SDS011;66626;48.872;9.084;2023-08-24T08:57:19;8.38;;;5.47;;
77513;SDS011;66626;48.872;9.084;2023-08-24T08:59:44;7.05;;;5.07;;
77513;SDS011;66626;48.872;9.084;2023-08-24T09:02:10;10.05;;;4.93;;
77513;SDS011;66626;48.872;9.084;2023-08-24T09:04:38;8.20;;;4.38;;
77513;SDS011;66626;48.872;9.084;2023-08-24T09:07:04;7.35;;;4.15;;
77513;SDS011;66626;48.872;9.084;2023-08-24T09:09:35;7.63;;;4.55;;
77513;SDS011;66626;48.872;9.084;2023-08-24T09:12:01;9.13;;;5.32;;
77513;SDS011;66626;48.872;9.084;2023-08-24T09:14:26;6.80;;;4.35;;
77513;SDS011;66626;48.872;9.084;2023-08-24T09:16:52;8.77;;;4.28;;
77513;SDS011;66626;48.872;9.084;2023-08-24T09:19:17;15.57;;;10.05;;
77513;SDS011;66626;48.872;9.084;2023-08-24T09:21:42;18.77;;;10.60;;
77513;SDS011;66626;48.872;9.084;2023-08-24T09:24:08;10.65;;;5.70;;
77513;SDS011;66626;48.872;9.084;2023-08-24T09:26:34;10.18;;;4.45;;
77513;SDS011;66626;48.872;9.084;2023-08-24T09:29:11;9.43;;;4.07;;
77513;SDS011;66626;48.872;9.084;2023-08-24T09:31:41;7.20;;;4.28;;
77513;SDS011;66626;48.872;9.084;2023-08-24T09:34:09;7.18;;;4.20;;
77513;SDS011;66626;48.872;9.084;2023-08-24T09:36:34;8.35;;;4.50;;
77513;SDS011;66626;48.872;9.084;2023-08-24T09:39:00;6.82;;;4.07;;
77513;SDS011;66626;48.872;9.084;2023-08-24T09:44:05;10.57;;;5.15;;
77513;SDS011;66626;48.872;9.084;2023-08-24T09:46:31;10.55;;;5.47;;
77513;SDS011;66626;48.872;9.084;2023-08-24T09:48:56;9.60;;;5.22;;
77513;SDS011;66626;48.872;9.084;2023-08-24T09:51:25;8.77;;;4.53;;
77513;SDS011;66626;48.872;9.084;2023-08-24T09:53:51;7.20;;;3.65;;
77513;SDS011;66626;48.872;9.084;2023-08-24T09:56:18;6.85;;;3.70;;
77513;SDS011;66626;48.872;9.084;2023-08-24T09:58:44;7.50;;;3.95;;
77513;SDS011;66626;48.872;9.084;2023-08-24T10:01:11;14.27;;;9.68;;
77513;SDS011;66626;48.872;9.084;2023-08-24T10:03:36;15.68;;;6.10;;
77513;SDS011;66626;48.872;9.084;2023-08-24T10:06:05;6.60;;;3.72;;
77513;SDS011;66626;48.872;9.084;2023-08-24T10:08:36;8.68;;;3.95;;
77513;SDS011;66626;48.872;9.084;2023-08-24T10:11:02;7.25;;;4.00;;
77513;SDS011;66626;48.872;9.084;2023-08-24T10:13:33;6.80;;;3.75;;
77513;SDS011;66626;48.872;9.084;2023-08-24T10:16:19;8.90;;;3.80;;
77513;SDS011;66626;48.872;9.084;2023-08-24T10:18:46;8.38;;;3.72;;
77513;SDS011;66626;48.872;9.084;2023-08-24T10:21:12;6.18;;;4.22;;
77513;SDS011;66626;48.872;9.084;2023-08-24T10:23:38;9.20;;;3.97;;
77513;SDS011;66626;48.872;9.084;2023-08-24T10:26:03;9.55;;;3.92;;
77513;SDS011;66626;48.872;9.084;2023-08-24T10:28:32;7.63;;;4.00;;
77513;SDS011;66626;48.872;9.084;2023-08-24T10:30:57;11.73;;;3.97;;
77513;SDS011;66626;48.872;9.084;2023-08-24T10:33:24;7.97;;;4.32;;
77513;SDS011;66626;48.872;9.084;2023-08-24T10:35:51;8.80;;;3.85;;
77513;SDS011;66626;48.872;9.084;2023-08-24T10:38:22;10.25;;;3.90;;
77513;SDS011;66626;48.872;9.084;2023-08-24T10:40:50;7.88;;;4.13;;
77513;SDS011;66626;48.872;9.084;2023-08-24T10:43:16;9.18;;;4.55;;
77513;SDS011;66626;48.872;9.084;2023-08-24T10:45:53;8.90;;;4.07;;
77513;SDS011;66626;48.872;9.084;2023-08-24T10:48:23;7.40;;;4.03;;
77513;SDS011;66626;48.872;9.084;2023-08-24T10:53:44;9.00;;;4.13;;
77513;SDS011;66626;48.872;9.084;2023-08-24T10:56:10;8.88;;;4.30;;
77513;SDS011;66626;48.872;9.084;2023-08-24T10:58:38;11.90;;;6.82;;
77513;SDS011;66626;48.872;9.084;2023-08-24T11:01:04;16.48;;;11.63;;
77513;SDS011;66626;48.872;9.084;2023-08-24T11:03:32;9.50;;;5.40;;
77513;SDS011;66626;48.872;9.084;2023-08-24T11:05:58;9.07;;;5.45;;
77513;SDS011;66626;48.872;9.084;2023-08-24T11:11:21;7.07;;;4.30;;
77513;SDS011;66626;48.872;9.084;2023-08-24T11:16:46;7.18;;;4.10;;
77513;SDS011;66626;48.872;9.084;2023-08-24T11:19:12;8.23;;;4.10;;
77513;SDS011;66626;48.872;9.084;2023-08-24T11:21:39;7.70;;;4.10;;
77513;SDS011;66626;48.872;9.084;2023-08-24T11:24:05;7.43;;;4.22;;
77513;SDS011;66626;48.872;9.084;2023-08-24T11:26:31;7.75;;;4.53;;
77513;SDS011;66626;48.872;9.084;2023-08-24T11:28:56;7.32;;;4.38;;
77513;SDS011;66626;48.872;9.084;2023-08-24T11:31:25;8.68;;;3.95;;
77513;SDS011;66626;48.872;9.084;2023-08-24T11:33:54;8.93;;;4.57;;
77513;SDS011;66626;48.872;9.084;2023-08-24T11:36:20;7.70;;;4.13;;
77513;SDS011;66626;48.872;9.084;2023-08-24T11:38:46;10.40;;;4.80;;
77513;SDS011;66626;48.872;9.084;2023-08-24T11:41:15;12.00;;;4.88;;
77513;SDS011;66626;48.872;9.084;2023-08-24T11:43:45;7.03;;;4.60;;
77513;SDS011;66626;48.872;9.084;2023-08-24T11:46:12;7.50;;;4.68;;
77513;SDS011;66626;48.872;9.084;2023-08-24T11:48:38;7.47;;;4.75;;
77513;SDS011;66626;48.872;9.084;2023-08-24T11:51:07;8.00;;;4.70;;
77513;SDS011;66626;48.872;9.084;2023-08-24T11:53:36;11.68;;;4.75;;
77513;SDS011;66626;48.872;9.084;2023-08-24T11:56:02;9.30;;;4.78;;
77513;SDS011;66626;48.872;9.084;2023-08-24T11:58:27;7.22;;;4.82;;
77513;SDS011;66626;48.872;9.084;2023-08-24T12:00:52;8.63;;;4.97;;
77513;SDS011;66626;48.872;9.084;2023-08-24T12:03:18;9.00;;;5.05;;
77513;SDS011;66626;48.872;9.084;2023-08-24T12:05:43;7.68;;;4.80;;
77513;SDS011;66626;48.872;9.084;2023-08-24T12:08:10;7.85;;;4.63;;
77513;SDS011;66626;48.872;9.084;2023-08-24T12:10:40;11.00;;;6.53;;
77513;SDS011;66626;48.872;9.084;2023-08-24T12:13:06;10.02;;;4.57;;
77513;SDS011;66626;48.872;9.084;2023-08-24T12:15:35;8.95;;;5.35;;
77513;SDS011;66626;48.872;9.084;2023-08-24T12:18:08;8.25;;;4.82;;
77513;SDS011;66626;48.872;9.084;2023-08-24T12:20:35;8.63;;;5.22;;
77513;SDS011;66626;48.872;9.084;2023-08-24T12:23:01;7.32;;;4.72;;
77513;SDS011;66626;48.872;9.084;2023-08-24T12:25:27;7.82;;;4.82;;
77513;SDS011;66626;48.872;9.084;2023-08-24T12:27:52;8.68;;;4.80;;
77513;SDS011;66626;48.872;9.084;2023-08-24T12:30:19;9.73;;;4.82;;
77513;SDS011;66626;48.872;9.084;2023-08-24T12:32:45;7.70;;;4.78;;
77513;SDS011;66626;48.872;9.084;2023-08-24T12:35:11;11.32;;;5.50;;
77513;SDS011;66626;48.872;9.084;2023-08-24T12:37:39;8.85;;;5.47;;
77513;SDS011;66626;48.872;9.084;2023-08-24T12:40:04;10.43;;;5.85;;
77513;SDS011;66626;48.872;9.084;2023-08-24T12:42:31;12.13;;;5.72;;
77513;SDS011;66626;48.872;9.084;2023-08-24T12:44:56;12.45;;;5.60;;
77513;SDS011;66626;48.872;9.084;2023-08-24T12:47:21;8.23;;;5.47;;
77513;SDS011;66626;48.872;9.084;2023-08-24T12:49:47;9.77;;;5.38;;
77513;SDS011;66626;48.872;9.084;2023-08-24T12:52:12;9.60;;;4.90;;
77513;SDS011;66626;48.872;9.084;2023-08-24T12:54:38;10.32;;;4.95;;
77513;SDS011;66626;48.872;9.084;2023-08-24T12:57:03;12.45;;;5.15;;
77513;SDS011;66626;48.872;9.084;2023-08-24T12:59:28;8.32;;;4.82;;
77513;SDS011;66626;48.872;9.084;2023-08-24T13:01:54;10.35;;;4.93;;
77513;SDS011;66626;48.872;9.084;2023-08-24T13:04:19;11.52;;;4.80;;
77513;SDS011;66626;48.872;9.084;2023-08-24T13:06:45;10.30;;;5.20;;
77513;SDS011;66626;48.872;9.084;2023-08-24T13:09:10;11.32;;;5.18;;
77513;SDS011;66626;48.872;9.084;2023-08-24T13:11:36;10.23;;;4.88;;
77513;SDS011;66626;48.872;9.084;2023-08-24T13:14:02;10.57;;;5.00;;
77513;SDS011;66626;48.872;9.084;2023-08-24T13:16:27;7.70;;;4.78;;
77513;SDS011;66626;48.872;9.084;2023-08-24T13:18:53;11.25;;;5.07;;
77513;SDS011;66626;48.872;9.084;2023-08-24T13:21:18;9.80;;;5.18;;
77513;SDS011;66626;48.872;9.084;2023-08-24T13:23:43;10.70;;;4.75;;
77513;SDS011;66626;48.872;9.084;2023-08-24T13:26:16;11.93;;;5.13;;
77513;SDS011;66626;48.872;9.084;2023-08-24T13:28:43;6.97;;;4.57;;
77513;SDS011;66626;48.872;9.084;2023-08-24T13:31:08;13.00;;;5.63;;
77513;SDS011;66626;48.872;9.084;2023-08-24T13:33:33;13.98;;;5.07;;
77513;SDS011;66626;48.872;9.084;2023-08-24T13:35:59;9.45;;;5.47;;
77513;SDS011;66626;48.872;9.084;2023-08-24T13:38:26;12.80;;;5.22;;
77513;SDS011;66626;48.872;9.084;2023-08-24T13:40:52;11.75;;;4.82;;
77513;SDS011;66626;48.872;9.084;2023-08-24T13:43:17;7.75;;;4.38;;
77513;SDS011;66626;48.872;9.084;2023-08-24T13:45:44;9.70;;;4.88;;
77513;SDS011;66626;48.872;9.084;2023-08-24T13:48:10;10.45;;;4.82;;
77513;SDS011;66626;48.872;9.084;2023-08-24T13:50:35;11.32;;;4.95;;
77513;SDS011;66626;48.872;9.084;2023-08-24T13:53:00;10.77;;;5.00;;
77513;SDS011;66626;48.872;9.084;2023-08-24T13:55:26;9.90;;;5.40;;
77513;SDS011;66626;48.872;9.084;2023-08-24T13:57:51;10.70;;;4.72;;
77513;SDS011;66626;48.872;9.084;2023-08-24T14:00:16;9.82;;;5.03;;
77513;SDS011;66626;48.872;9.084;2023-08-24T14:02:42;9.93;;;5.18;;
77513;SDS011;66626;48.872;9.084;2023-08-24T14:05:07;9.25;;;5.03;;
77513;SDS011;66626;48.872;9.084;2023-08-24T14:07:34;10.65;;;5.28;;
77513;SDS011;66626;48.872;9.084;2023-08-24T14:10:00;10.15;;;4.72;;
77513;SDS011;66626;48.872;9.084;2023-08-24T14:12:26;8.73;;;4.90;;
77513;SDS011;66626;48.872;9.084;2023-08-24T14:14:51;9.30;;;4.65;;
77513;SDS011;66626;48.872;9.084;2023-08-24T14:17:17;11.25;;;4.78;;
77513;SDS011;66626;48.872;9.084;2023-08-24T14:19:42;9.40;;;4.72;;
77513;SDS011;66626;48.872;9.084;2023-08-24T14:22:07;9.65;;;5.03;;
77513;SDS011;66626;48.872;9.084;2023-08-24T14:24:32;10.90;;;5.45;;
77513;SDS011;66626;48.872;9.084;2023-08-24T14:26:59;10.10;;;5.00;;
77513;SDS011;66626;48.872;9.084;2023-08-24T14:29:25;11.80;;;5.07;;
77513;SDS011;66626;48.872;9.084;2023-08-24T14:31:50;8.68;;;5.25;;
77513;SDS011;66626;48.872;9.084;2023-08-24T14:34:15;11.05;;;5.45;;
77513;SDS011;66626;48.872;9.084;2023-08-24T14:36:41;9.75;;;5.55;;
77513;SDS011;66626;48.872;9.084;2023-08-24T14:39:06;13.65;;;5.40;;
77513;SDS011;66626;48.872;9.084;2023-08-24T14:41:32;12.02;;;5.43;;
77513;SDS011;66626;48.872;9.084;2023-08-24T14:43:57;8.75;;;5.75;;
77513;SDS011;66626;48.872;9.084;2023-08-24T14:46:23;8.63;;;5.65;;
77513;SDS011;66626;48.872;9.084;2023-08-24T14:48:48;9.70;;;5.95;;